Share

Alliance, NE

Alliance Municipal (KAIA) Elev 3930 ft | 42.06 °N, 102.80 °W | Change Station

Current weather conditions updated 44 minutes ago

Partly Cloudy
Partly Cloudy
64 °F
Feels Like 64 °F
N
14
Wind Variable Wind from South
Gusts 26 mph
Sunrise 6:06 AM
Sunset 7:36 PM
Moon Waning Gibbous

Tomorrow is forecast to be Much Cooler than today.

Pressure 29.72 in
Visibility 10.0 miles
Clouds Few 12000 ft
Dew Point 35 °F
Humidity 34%
Rainfall 0.00 in
Snow Depth Not available.
UV 0 out of 16
Pollen 11.30 out of 12
Air Quality Not available.
Flu Activity Sporadic
METAR KAIA 190353Z AUTO 18012G23KT 10SM FEW120 18/02 A2981 RMK AO2 SLP064 T01780017

More Conditions Fewer Conditions

Pressure 29.72 in
Visibility 10.0 miles
Clouds Few 12000 ft
Dew Point 35 °F
Humidity 34%
Rainfall 0.00 in
Snow Depth Not available.
UV 0 out of 16
Pollen 11.30 out of 12
Air Quality Not available.
Flu Activity Sporadic
METAR KAIA 190353Z AUTO 18012G23KT 10SM FEW120 18/02 A2981 RMK AO2 SLP064 T01780017

More Conditions Fewer Conditions

10-Day Weather Forecast

Almanac

Astronomy

Apr. 18, 2014 Rise Set
Actual Time 6:06 AM MDT 7:36 PM MDT
Civil Twilight 5:36 AM MDT 8:05 PM MDT
Nautical Twilight 5:01 AM MDT 8:41 PM MDT
Astronomical Twilight 4:24 AM MDT 9:18 PM MDT
Moon 11:26 PM MDT (4/18) 8:27 AM MDT (4/18)
Length of Visible Light 14h 28m
Length of Day
13h 30m
Tomorrow will be 2m 40s longer.
Waning Gibbous, 83% of the Moon is Illuminated
Apr 19
Waning Gibbous
Apr 22
Last Quarter
Apr 29
New
May 6
First Quarter
May 14
Full

Yesterday's Extremes

State Highs State Lows

Community

  • Sunset Silhouettes
    Sunset Silhouettes
  • FL sunset Perico Isle
    FL sunset Perico Isle
  • Cloudy spring view
    Cloudy spring view
  • Old barn
    Old barn
  • What's for Lunch?
    What's for Lunch?

WunderPhotos

Upload Photos

1,702,639 photos uploaded!

WunderBlogs® & News

Nearby

Snow Depth

Station Depth Elevation
No new snow has been reported.

Coastal Water Temperatures

Place Temperature
No Stations Reporting

Earthquake Activity

City Distance Mag. Time & Date
No recent earthquake activity has been reported nearby.
Minimum magnitude displayed is 2.5.

Nearby Weather Stations

Station Location Temp. Dew Point Humidity Wind Precip. Elev Updated Type
Panhandle Coop/Box Butte Co, Alliance, NE 61.9 °F 38 °F 41% SSW  at  10.0 mph 0.00 in / hr 4140 ft 10:23 PM MDT Normal
Wayne Rd., Alliance, NE 64.6 °F 36 °F 35% West  at  10.0 mph 0.00 in / hr 4091 ft 10:30 PM MDT Normal

Show More Stations Show Fewer Stations

What do you think?

We're not finished. Please let us know what you like, what you don't like, and what you are still missing.